createdAt,value
2022-08-23T00:01:57.323Z,62.21
2022-08-23T00:04:30.414Z,62.01
2022-08-23T00:07:02.049Z,61.94
2022-08-23T00:09:31.351Z,62.16
2022-08-23T00:12:09.875Z,62.05
2022-08-23T00:14:38.192Z,62.23
2022-08-23T00:17:05.677Z,62.21
2022-08-23T00:19:33.077Z,62.17
2022-08-23T00:22:00.155Z,62.01
2022-08-23T00:24:27.262Z,62.04
2022-08-23T00:27:11.827Z,62.03
2022-08-23T00:29:40.000Z,62.01
2022-08-23T00:32:08.743Z,61.98
2022-08-23T00:34:36.411Z,61.79
2022-08-23T00:37:03.871Z,61.88
2022-08-23T00:39:30.842Z,62.01
2022-08-23T00:42:29.134Z,62.01
2022-08-23T00:45:14.689Z,61.95
2022-08-23T00:47:43.125Z,62.09
2022-08-23T00:50:27.071Z,62.12
2022-08-23T00:53:06.083Z,61.98
2022-08-23T00:55:33.994Z,62.27
2022-08-23T00:58:01.476Z,61.92
2022-08-23T01:00:28.944Z,61.90
2022-08-23T01:02:57.338Z,61.98
2022-08-23T01:05:35.042Z,62.10
2022-08-23T01:08:02.128Z,61.80
2022-08-23T01:11:04.675Z,61.68
2022-08-23T01:14:02.208Z,61.71
2022-08-23T01:17:01.997Z,61.91
2022-08-23T01:20:13.844Z,61.79
2022-08-23T01:23:10.766Z,61.87
2022-08-23T01:25:57.424Z,61.72
2022-08-23T01:28:24.850Z,61.98
2022-08-23T01:30:52.351Z,61.91
2022-08-23T01:33:19.852Z,62.13
2022-08-23T01:35:51.875Z,61.64
2022-08-23T01:38:18.850Z,61.81
2022-08-23T01:40:45.796Z,61.91
2022-08-23T01:43:13.777Z,61.54
2022-08-23T01:45:40.662Z,61.62
2022-08-23T01:48:08.540Z,61.61
2022-08-23T01:53:02.470Z,61.62
2022-08-23T01:55:29.616Z,61.72
2022-08-23T01:57:57.985Z,61.70
2022-08-23T02:00:27.402Z,61.87
2022-08-23T02:02:54.313Z,61.61
2022-08-23T02:05:21.243Z,61.50
2022-08-23T02:07:48.335Z,61.84
2022-08-23T02:10:15.766Z,61.55
2022-08-23T02:12:42.675Z,61.67
2022-08-23T02:15:09.948Z,61.89
2022-08-23T02:17:37.229Z,61.73
2022-08-23T02:20:05.651Z,61.80
2022-08-23T02:22:33.680Z,61.85
2022-08-23T02:25:03.559Z,61.71
2022-08-23T02:27:30.461Z,61.57
2022-08-23T02:30:00.062Z,61.54
2022-08-23T02:32:29.044Z,61.50
2022-08-23T02:35:05.012Z,61.43
2022-08-23T02:37:33.481Z,61.46
2022-08-23T02:40:00.691Z,61.69
2022-08-23T02:42:28.035Z,61.68
2022-08-23T02:44:55.674Z,61.61
2022-08-23T02:47:23.931Z,61.64
2022-08-23T02:49:52.012Z,61.40
2022-08-23T02:52:18.976Z,61.56
2022-08-23T02:54:45.902Z,61.36
2022-08-23T02:57:13.369Z,61.39
2022-08-23T02:59:40.319Z,61.63
2022-08-23T03:02:07.358Z,61.45
2022-08-23T03:04:34.338Z,61.47
2022-08-23T03:07:01.274Z,61.29
2022-08-23T03:09:28.277Z,61.71
2022-08-23T03:11:55.225Z,61.50
2022-08-23T03:14:24.852Z,61.31
2022-08-23T03:16:52.103Z,61.26
2022-08-23T03:19:19.217Z,61.26
2022-08-23T03:21:46.303Z,61.53
2022-08-23T03:24:13.873Z,60.95
2022-08-23T03:26:44.809Z,61.29
2022-08-23T03:29:12.499Z,61.41
2022-08-23T03:31:42.273Z,61.51
2022-08-23T03:34:09.330Z,61.47
2022-08-23T03:36:36.257Z,61.33
2022-08-23T03:39:03.668Z,61.83
2022-08-23T03:41:30.539Z,61.40
2022-08-23T03:43:57.529Z,61.37
2022-08-23T03:46:24.625Z,61.39
2022-08-23T03:48:56.862Z,61.54
2022-08-23T03:51:24.012Z,61.18
2022-08-23T03:53:50.966Z,61.41
2022-08-23T03:56:33.565Z,61.30
2022-08-23T03:59:05.771Z,61.20
2022-08-23T04:01:32.748Z,61.14
2022-08-23T04:04:00.321Z,61.24
2022-08-23T04:06:27.983Z,61.27
2022-08-23T04:08:55.100Z,61.54
2022-08-23T04:11:22.640Z,61.61
2022-08-23T04:13:50.003Z,61.31
2022-08-23T04:16:19.155Z,61.25
2022-08-23T04:18:46.129Z,61.23
2022-08-23T04:21:15.075Z,61.00
2022-08-23T04:23:42.030Z,60.89
2022-08-23T04:26:09.872Z,61.26
2022-08-23T04:28:37.035Z,61.31
2022-08-23T04:31:04.903Z,61.24
2022-08-23T04:33:33.060Z,61.18
2022-08-23T04:36:01.146Z,61.09
2022-08-23T04:38:28.251Z,61.20
2022-08-23T04:41:13.853Z,61.40
2022-08-23T04:43:41.209Z,61.46
2022-08-23T04:46:08.098Z,61.31
2022-08-23T04:48:35.765Z,61.02
2022-08-23T04:51:03.189Z,61.06
2022-08-23T04:53:30.707Z,61.19
2022-08-23T04:55:57.616Z,61.25
2022-08-23T04:58:24.562Z,61.04
2022-08-23T05:00:54.752Z,61.16
2022-08-23T05:03:21.741Z,61.14
2022-08-23T05:05:48.661Z,61.48
2022-08-23T05:08:15.971Z,61.41
2022-08-23T05:10:42.930Z,61.23
2022-08-23T05:13:09.944Z,61.47
2022-08-23T05:15:36.950Z,61.43
2022-08-23T05:18:04.009Z,61.45
2022-08-23T05:20:31.566Z,61.26
2022-08-23T05:22:59.957Z,61.42
2022-08-23T05:25:46.875Z,61.57
2022-08-23T05:28:13.878Z,61.54
2022-08-23T05:30:41.719Z,61.68
2022-08-23T05:33:16.401Z,61.44
2022-08-23T05:35:43.447Z,61.42
2022-08-23T05:38:10.360Z,61.49
2022-08-23T05:40:37.362Z,61.45
2022-08-23T05:43:05.433Z,61.68
2022-08-23T05:45:32.395Z,61.71
2022-08-23T05:47:59.349Z,61.49
2022-08-23T05:50:26.417Z,61.93
2022-08-23T05:52:53.343Z,61.52
2022-08-23T05:55:20.218Z,61.76
2022-08-23T05:57:50.553Z,61.86
2022-08-23T06:00:17.480Z,61.95
2022-08-23T06:02:44.562Z,61.74
2022-08-23T06:05:11.484Z,61.73
2022-08-23T06:07:38.491Z,61.81
2022-08-23T06:10:05.879Z,61.66
2022-08-23T06:12:33.143Z,61.80
2022-08-23T06:15:00.963Z,61.60
2022-08-23T06:17:28.537Z,61.91
2022-08-23T06:19:55.549Z,61.66
2022-08-23T06:22:22.547Z,61.78
2022-08-23T06:24:49.617Z,61.49
2022-08-23T06:27:16.714Z,61.70
2022-08-23T06:29:43.838Z,61.75
2022-08-23T06:32:10.825Z,61.70
2022-08-23T06:34:38.224Z,61.92
2022-08-23T06:37:12.393Z,61.74
2022-08-23T06:39:39.318Z,61.92
2022-08-23T06:42:37.338Z,61.88
2022-08-23T06:45:03.860Z,61.93
2022-08-23T06:47:31.841Z,61.82
2022-08-23T06:49:59.176Z,61.72
2022-08-23T06:52:27.728Z,61.77
2022-08-23T06:54:54.773Z,61.44
2022-08-23T06:57:21.756Z,61.34
2022-08-23T06:59:50.031Z,61.38
2022-08-23T07:02:17.016Z,61.37
2022-08-23T07:04:44.092Z,61.67
2022-08-23T07:07:12.137Z,61.43
2022-08-23T07:09:39.536Z,61.56
2022-08-23T07:12:06.815Z,61.31
2022-08-23T07:14:33.801Z,61.33
2022-08-23T07:17:02.007Z,61.38
2022-08-23T07:19:31.260Z,61.62
2022-08-23T07:21:59.612Z,61.32
2022-08-23T07:24:30.761Z,61.40
2022-08-23T07:26:59.934Z,61.26
2022-08-23T07:29:26.893Z,61.19
2022-08-23T07:31:55.327Z,61.35
2022-08-23T07:34:22.658Z,61.37
2022-08-23T07:36:49.784Z,61.16
2022-08-23T07:39:19.229Z,61.06
2022-08-23T07:41:47.026Z,61.04
2022-08-23T07:44:18.018Z,61.31
2022-08-23T07:46:46.328Z,61.18
2022-08-23T07:49:13.409Z,61.17
2022-08-23T07:51:41.073Z,61.21
2022-08-23T07:54:09.633Z,60.93
2022-08-23T07:56:36.615Z,61.00
2022-08-23T07:59:04.652Z,61.15
2022-08-23T08:01:31.637Z,60.85
2022-08-23T08:04:00.375Z,61.03
2022-08-23T08:06:30.196Z,61.11
2022-08-23T08:08:57.823Z,61.18
2022-08-23T08:11:30.905Z,61.37
2022-08-23T08:14:06.146Z,61.18
2022-08-23T08:16:44.243Z,60.97
2022-08-23T08:19:12.703Z,61.16
2022-08-23T08:21:42.614Z,61.13
2022-08-23T08:24:10.691Z,60.99
2022-08-23T08:26:37.771Z,60.85
2022-08-23T08:29:05.446Z,60.92
2022-08-23T08:31:32.572Z,60.74
2022-08-23T08:33:59.741Z,60.86
2022-08-23T08:36:30.578Z,60.99
2022-08-23T08:39:00.767Z,60.61
2022-08-23T08:41:48.734Z,61.08
2022-08-23T08:44:36.410Z,60.80
2022-08-23T08:47:11.586Z,61.08
2022-08-23T08:50:02.008Z,60.92
2022-08-23T08:52:40.429Z,60.77
2022-08-23T08:55:15.020Z,61.06
2022-08-23T08:57:45.258Z,60.72
2022-08-23T09:00:14.127Z,60.65
2022-08-23T09:02:41.306Z,61.12
2022-08-23T09:05:12.197Z,60.71
2022-08-23T09:07:44.640Z,60.75
2022-08-23T09:10:20.278Z,60.82
2022-08-23T09:13:14.889Z,60.75
2022-08-23T09:15:55.224Z,60.65
2022-08-23T09:18:24.140Z,60.75
2022-08-23T09:20:53.082Z,60.75
2022-08-23T09:23:26.416Z,61.24
2022-08-23T09:26:02.638Z,60.88
2022-08-23T09:28:31.725Z,61.10
2022-08-23T09:30:59.542Z,60.82
2022-08-23T09:33:43.667Z,61.31
2022-08-23T09:36:23.272Z,60.59
2022-08-23T09:39:04.698Z,60.92
2022-08-23T09:41:36.976Z,60.82
2022-08-23T09:44:08.533Z,60.97
2022-08-23T09:46:39.370Z,60.76
2022-08-23T09:49:35.596Z,61.00
2022-08-23T09:52:12.920Z,60.85
2022-08-23T09:54:57.090Z,60.95
2022-08-23T09:57:27.870Z,61.02
2022-08-23T09:59:56.610Z,60.76
2022-08-23T10:02:27.176Z,60.87
2022-08-23T10:04:54.335Z,60.83
2022-08-23T10:07:34.238Z,60.96
2022-08-23T10:10:43.711Z,60.98
2022-08-23T10:13:15.099Z,60.75
2022-08-23T10:15:53.857Z,61.02
2022-08-23T10:18:41.889Z,60.82
2022-08-23T10:21:24.256Z,60.76
2022-08-23T10:23:55.184Z,60.85
2022-08-23T10:26:35.319Z,60.90
2022-08-23T10:29:40.502Z,60.73
2022-08-23T10:32:16.681Z,60.94
2022-08-23T10:34:53.701Z,60.79
2022-08-23T10:37:34.116Z,60.88
2022-08-23T10:40:29.035Z,60.60
2022-08-23T10:43:13.359Z,60.67
2022-08-23T10:45:42.020Z,60.60
2022-08-23T10:48:29.427Z,60.83
2022-08-23T10:51:00.465Z,60.84
2022-08-23T10:53:35.586Z,60.79
2022-08-23T10:56:06.285Z,60.83
2022-08-23T10:58:42.479Z,61.06
2022-08-23T11:01:10.153Z,60.72
2022-08-23T11:03:45.235Z,60.80
2022-08-23T11:06:44.713Z,61.10
2022-08-23T11:09:17.583Z,60.51
2022-08-23T11:11:46.912Z,60.70
2022-08-23T11:14:37.067Z,60.72
2022-08-23T11:17:06.211Z,60.57
2022-08-23T11:19:51.798Z,60.71
2022-08-23T11:22:22.847Z,60.68
2022-08-23T11:24:58.186Z,60.61
2022-08-23T11:27:41.578Z,60.74
2022-08-23T11:30:33.391Z,60.71
2022-08-23T11:33:03.522Z,60.53
2022-08-23T11:35:43.270Z,60.60
2022-08-23T11:38:11.163Z,60.58
2022-08-23T11:40:57.144Z,60.52
2022-08-23T11:43:34.495Z,60.65
2022-08-23T11:46:21.409Z,60.29
2022-08-23T11:48:55.938Z,60.73
2022-08-23T11:51:41.261Z,60.60
2022-08-23T11:54:29.881Z,60.54
2022-08-23T11:57:11.900Z,60.34
2022-08-23T12:00:26.910Z,60.49
2022-08-23T12:03:09.131Z,60.28
2022-08-23T12:05:39.602Z,60.23
2022-08-23T12:08:06.721Z,60.41
2022-08-23T12:10:42.542Z,60.03
2022-08-23T12:13:18.781Z,60.26
2022-08-23T12:16:16.872Z,60.50
2022-08-23T12:18:47.722Z,60.33
2022-08-23T12:21:38.647Z,60.32
2022-08-23T12:24:35.759Z,60.07
2022-08-23T12:27:30.518Z,60.16
2022-08-23T12:30:08.564Z,60.13
2022-08-23T12:32:42.413Z,60.01
2022-08-23T12:35:27.608Z,60.16
2022-08-23T12:38:01.754Z,60.08
2022-08-23T12:41:00.334Z,60.13
2022-08-23T12:43:29.215Z,60.18
2022-08-23T12:45:56.857Z,60.18
2022-08-23T12:48:28.682Z,60.11
2022-08-23T12:51:00.953Z,60.01
2022-08-23T12:53:39.314Z,59.83
2022-08-23T12:56:20.000Z,60.01
2022-08-23T12:58:52.265Z,59.86
2022-08-23T13:01:24.913Z,60.00
2022-08-23T13:04:05.383Z,59.71
2022-08-23T13:06:36.337Z,59.69
2022-08-23T13:09:06.342Z,59.63
2022-08-23T13:11:34.264Z,59.78
2022-08-23T13:14:01.491Z,59.67
2022-08-23T13:16:37.393Z,59.71
2022-08-23T13:19:13.746Z,59.79
2022-08-23T13:21:40.690Z,59.81
2022-08-23T13:24:37.613Z,59.66
2022-08-23T13:27:17.709Z,59.56
2022-08-23T13:29:52.423Z,59.71
2022-08-23T13:32:29.254Z,59.74
2022-08-23T13:34:56.850Z,59.65
2022-08-23T13:37:30.888Z,59.64
2022-08-23T13:40:06.219Z,59.80
2022-08-23T13:42:50.951Z,59.67
2022-08-23T13:45:25.792Z,59.67
2022-08-23T13:47:56.992Z,59.63
2022-08-23T13:50:42.123Z,59.60
2022-08-23T13:53:16.967Z,59.63
2022-08-23T13:55:49.129Z,59.68
2022-08-23T13:58:33.125Z,59.86
2022-08-23T14:01:00.811Z,59.65
2022-08-23T14:03:28.839Z,59.63
2022-08-23T14:05:55.752Z,59.50
2022-08-23T14:08:22.733Z,59.46
2022-08-23T14:10:49.637Z,59.45
2022-08-23T14:13:16.836Z,59.66
2022-08-23T14:16:33.011Z,59.70
2022-08-23T14:18:32.473Z,59.57
2022-08-23T14:20:59.514Z,59.49
2022-08-23T14:23:27.019Z,59.22
2022-08-23T14:25:55.371Z,59.56
2022-08-23T14:28:23.186Z,59.35
2022-08-23T14:30:51.663Z,59.77
2022-08-23T14:33:21.801Z,59.64
2022-08-23T14:35:49.454Z,59.64
2022-08-23T14:38:17.788Z,59.99
2022-08-23T14:40:59.252Z,59.60
2022-08-23T14:43:26.927Z,60.07
2022-08-23T14:45:54.397Z,59.88
2022-08-23T14:48:21.488Z,59.71
2022-08-23T14:50:48.435Z,59.66
2022-08-23T14:53:25.861Z,59.48
2022-08-23T14:56:12.240Z,59.63
2022-08-23T14:58:42.055Z,59.08
2022-08-23T15:01:09.642Z,59.06
2022-08-23T15:03:36.630Z,59.16
2022-08-23T15:06:03.642Z,59.08
2022-08-23T15:08:30.517Z,59.79
2022-08-23T15:13:55.252Z,60.86
2022-08-23T15:16:22.645Z,59.47
2022-08-23T15:18:50.636Z,59.03
2022-08-23T15:21:17.770Z,59.03
2022-08-23T15:23:44.752Z,59.77
2022-08-23T15:26:11.818Z,59.89
2022-08-23T15:28:38.888Z,59.52
2022-08-23T15:31:06.133Z,60.23
2022-08-23T15:33:33.839Z,60.33
2022-08-23T15:36:02.227Z,60.09
2022-08-23T15:38:31.283Z,60.47
2022-08-23T15:40:58.288Z,60.25
2022-08-23T15:43:30.094Z,59.67
2022-08-23T15:46:04.823Z,59.61
2022-08-23T15:48:37.901Z,59.84
2022-08-23T15:51:06.005Z,60.59
2022-08-23T15:53:33.370Z,60.31
2022-08-23T15:56:05.124Z,60.55
2022-08-23T15:58:32.689Z,60.04
2022-08-23T16:00:59.612Z,59.96
2022-08-23T16:03:26.609Z,59.81
2022-08-23T16:05:54.056Z,60.14
2022-08-23T16:08:22.211Z,60.36
2022-08-23T16:10:49.205Z,60.35
2022-08-23T16:13:16.165Z,60.16
2022-08-23T16:15:43.074Z,60.10
2022-08-23T16:18:10.661Z,60.06
2022-08-23T16:20:39.040Z,60.38
2022-08-23T16:23:05.977Z,60.46
2022-08-23T16:25:32.945Z,60.05
2022-08-23T16:27:59.802Z,59.96
2022-08-23T16:30:29.283Z,59.59
2022-08-23T16:32:57.040Z,60.21
2022-08-23T16:35:24.125Z,60.10
2022-08-23T16:37:51.009Z,60.00
2022-08-23T16:40:18.347Z,60.12
2022-08-23T16:42:45.318Z,60.00
2022-08-23T16:45:12.458Z,59.93
2022-08-23T16:47:42.958Z,59.96
2022-08-23T16:50:12.101Z,60.52
2022-08-23T16:52:39.045Z,61.03
2022-08-23T16:55:07.889Z,60.66
2022-08-23T16:57:34.799Z,60.85
2022-08-23T17:00:02.365Z,60.54
2022-08-23T17:02:33.599Z,60.67
2022-08-23T17:05:00.754Z,60.94
2022-08-23T17:07:27.637Z,60.92
2022-08-23T17:09:54.551Z,61.26
2022-08-23T17:12:21.560Z,61.19
2022-08-23T17:14:50.924Z,61.23
2022-08-23T17:17:20.239Z,61.28
2022-08-23T17:19:47.074Z,61.59
2022-08-23T17:22:14.008Z,61.20
2022-08-23T17:24:41.008Z,61.45
2022-08-23T17:27:07.993Z,61.21
2022-08-23T17:29:37.594Z,61.77
2022-08-23T18:09:43.753Z,60.79
2022-08-23T18:12:37.702Z,61.09
2022-08-23T18:15:37.039Z,60.83
2022-08-23T18:18:04.844Z,60.79
2022-08-23T18:20:33.885Z,60.50
2022-08-23T18:23:04.137Z,60.48
2022-08-23T18:25:34.975Z,60.19
2022-08-23T18:28:10.076Z,60.22
2022-08-23T18:31:04.766Z,60.21
2022-08-23T18:33:47.068Z,60.28
2022-08-23T18:36:17.175Z,59.85
2022-08-23T18:38:45.201Z,60.14
2022-08-23T18:41:14.236Z,59.88
2022-08-23T18:43:42.275Z,59.86
2022-08-23T18:46:11.366Z,60.01
2022-08-23T18:48:40.393Z,59.97
2022-08-23T18:51:17.770Z,60.01
2022-08-23T18:53:46.446Z,60.00
2022-08-23T18:56:14.504Z,59.94
2022-08-23T18:59:07.542Z,59.91
2022-08-23T19:01:40.696Z,60.02
2022-08-23T19:04:09.805Z,59.84
2022-08-23T19:06:38.703Z,59.98
2022-08-23T19:09:07.867Z,59.74
2022-08-23T19:11:40.770Z,59.69
2022-08-23T19:14:10.839Z,59.87
2022-08-23T19:16:48.334Z,59.79
2022-08-23T19:19:16.655Z,59.76
2022-08-23T19:22:10.002Z,59.85
2022-08-23T19:24:38.063Z,59.91
2022-08-23T19:27:06.057Z,59.92
2022-08-23T19:29:34.121Z,59.95
2022-08-23T19:32:02.170Z,59.80
2022-08-23T19:34:30.212Z,59.64
2022-08-23T19:37:01.146Z,60.04
2022-08-23T19:39:30.312Z,59.84
2022-08-23T19:41:59.396Z,59.89
2022-08-23T19:44:29.124Z,59.94
2022-08-23T19:46:57.500Z,59.74
2022-08-23T19:49:25.479Z,59.68
2022-08-23T19:51:53.522Z,59.72
2022-08-23T19:54:21.579Z,59.75
2022-08-23T19:56:52.617Z,59.78
2022-08-23T19:59:25.657Z,59.74
2022-08-23T20:01:53.957Z,59.70
2022-08-23T20:04:27.630Z,59.67
2022-08-23T20:06:56.807Z,59.80
2022-08-23T20:09:25.842Z,59.89
2022-08-23T20:11:53.870Z,59.91
2022-08-23T20:14:22.938Z,59.87
2022-08-23T20:16:51.024Z,60.07
2022-08-23T20:19:22.399Z,59.60
2022-08-23T20:21:50.058Z,59.72
2022-08-23T20:24:25.539Z,59.45
2022-08-23T20:26:56.162Z,59.37
2022-08-23T20:29:24.191Z,59.17
2022-08-23T20:32:06.239Z,59.08
2022-08-23T20:34:34.087Z,59.06
2022-08-23T20:37:06.334Z,59.26
2022-08-23T20:39:34.178Z,59.16
2022-08-23T20:42:01.431Z,59.07
2022-08-23T20:44:30.467Z,59.45
2022-08-23T20:47:02.649Z,59.21
2022-08-23T20:49:30.567Z,59.06
2022-08-23T20:51:57.525Z,59.11
2022-08-23T20:54:26.627Z,59.03
2022-08-23T20:56:53.667Z,59.16
2022-08-23T20:59:21.728Z,59.02
2022-08-23T21:01:49.829Z,59.22
2022-08-23T21:04:17.860Z,59.19
2022-08-23T21:06:48.842Z,59.42
2022-08-23T21:09:22.898Z,59.33
2022-08-23T21:11:51.934Z,59.31
2022-08-23T21:14:19.973Z,59.38
2022-08-23T21:16:48.018Z,59.35
2022-08-23T21:19:15.276Z,59.50
2022-08-23T21:21:43.109Z,59.32
2022-08-23T21:24:11.422Z,59.24
2022-08-23T21:26:38.725Z,59.42
2022-08-23T21:29:06.496Z,59.20
2022-08-23T21:31:34.614Z,59.47
2022-08-23T21:34:02.593Z,59.48
2022-08-23T21:36:30.626Z,59.43
2022-08-23T21:38:58.657Z,59.34
2022-08-23T21:41:39.703Z,59.08
2022-08-23T21:44:09.772Z,59.41
2022-08-23T21:46:37.873Z,59.12
2022-08-23T21:49:05.832Z,59.24
2022-08-23T21:51:34.844Z,59.34
2022-08-23T21:54:02.935Z,59.39
2022-08-23T21:56:30.958Z,59.27
2022-08-23T21:59:01.815Z,59.46
2022-08-23T22:01:31.100Z,59.09
2022-08-23T22:03:58.349Z,59.15
2022-08-23T22:06:25.498Z,59.47
2022-08-23T22:08:52.569Z,59.30
2022-08-23T22:11:20.209Z,59.03
2022-08-23T22:13:48.315Z,59.20
2022-08-23T22:16:16.358Z,59.07
2022-08-23T22:18:44.132Z,59.31
2022-08-23T22:21:11.286Z,59.26
2022-08-23T22:23:42.426Z,59.13
2022-08-23T22:26:10.471Z,59.22
2022-08-23T22:28:38.508Z,59.09
2022-08-23T22:31:06.649Z,59.25
2022-08-23T22:33:34.585Z,59.28
2022-08-23T22:36:06.648Z,59.25
2022-08-23T22:38:33.876Z,59.17
2022-08-23T22:41:01.719Z,58.79
2022-08-23T22:43:28.756Z,59.15
2022-08-23T22:45:57.873Z,59.08
2022-08-23T22:48:25.887Z,59.23
2022-08-23T22:51:07.914Z,59.16
2022-08-23T22:53:36.952Z,59.15
2022-08-23T22:56:05.007Z,58.96
2022-08-23T22:58:33.040Z,59.08
2022-08-23T23:01:03.757Z,59.15
2022-08-23T23:03:38.175Z,58.78
2022-08-23T23:06:09.165Z,59.07
2022-08-23T23:08:37.213Z,59.25
2022-08-23T23:11:09.257Z,58.98
2022-08-23T23:13:37.291Z,59.17
2022-08-23T23:16:09.337Z,58.80
2022-08-23T23:18:37.391Z,58.89
2022-08-23T23:21:05.344Z,59.10
2022-08-23T23:23:34.488Z,59.08
2022-08-23T23:26:03.537Z,58.89
2022-08-23T23:28:31.542Z,59.09
2022-08-23T23:30:59.833Z,58.94
2022-08-23T23:33:28.634Z,58.92
2022-08-23T23:35:56.680Z,58.98
2022-08-23T23:38:24.746Z,58.85
2022-08-23T23:40:52.768Z,58.82
2022-08-23T23:43:20.424Z,58.94
2022-08-23T23:45:47.875Z,59.05
2022-08-23T23:48:15.173Z,58.85
2022-08-23T23:50:46.466Z,58.83
2022-08-23T23:53:14.873Z,58.76
2022-08-23T23:55:42.871Z,59.01
2022-08-23T23:58:11.057Z,58.97
